Time;durP1;ratioP1;P1;durP2;ratioP2;P2;SDS_P1;SDS_P2;PMS_P1;PMS_P2;Temp;Humidity;BMP_temperature;BMP_pressure;BME280_temperature;BME280_humidity;BME280_pressure;Samples;Min_cycle;Max_cycle;Signal;HPM_P1;HPM_P2
2023/05/21 00:01:38;;;;;;;5.90;3.13;;;;;;;13.59;100.00;102158.13;4868016;29;20049;-76
2023/05/21 00:04:08;;;;;;;6.40;3.10;;;;;;;13.59;100.00;102144.88;4867859;29;20049;-76
2023/05/21 00:06:35;;;;;;;5.03;3.53;;;;;;;13.58;100.00;102151.03;4860338;29;20045;-76
2023/05/21 00:09:04;;;;;;;5.15;2.90;;;;;;;13.59;100.00;102139.59;4830889;29;20044;-76
2023/05/21 00:11:32;;;;;;;6.07;3.25;;;;;;;13.60;100.00;102140.47;4869967;29;20494;-76
2023/05/21 00:13:59;;;;;;;4.22;3.28;;;;;;;13.61;100.00;102142.22;4861892;29;20049;-76
2023/05/21 00:16:26;;;;;;;5.00;3.22;;;;;;;13.62;100.00;102144.03;4870216;29;20053;-76
2023/05/21 00:18:54;;;;;;;5.15;2.88;;;;;;;13.62;100.00;102126.34;4870488;29;20156;-76
2023/05/21 00:21:21;;;;;;;4.75;3.20;;;;;;;13.63;100.00;102125.50;4841864;29;20056;-76
2023/05/21 00:23:49;;;;;;;3.50;3.15;;;;;;;13.62;100.00;102122.84;4827534;29;20056;-76
2023/05/21 00:26:16;;;;;;;6.82;2.85;;;;;;;13.62;100.00;102125.47;4855799;29;20052;-76
2023/05/21 00:28:44;;;;;;;6.18;3.63;;;;;;;13.61;100.00;102134.28;4864247;29;20053;-76
2023/05/21 00:31:11;;;;;;;3.97;3.53;;;;;;;13.59;100.00;102136.03;4882497;29;20469;-76
2023/05/21 00:33:39;;;;;;;4.40;3.83;;;;;;;13.56;100.00;102130.72;4890260;29;20534;-76
2023/05/21 00:36:06;;;;;;;4.80;3.03;;;;;;;13.53;100.00;102128.91;4875901;29;21307;-76
2023/05/21 00:38:34;;;;;;;3.55;3.17;;;;;;;13.51;100.00;102130.66;4873630;29;20057;-76
2023/05/21 00:41:02;;;;;;;5.55;3.30;;;;;;;13.51;100.00;102125.34;4814642;29;20138;-76
2023/05/21 00:43:31;;;;;;;5.05;3.88;;;;;;;13.47;100.00;102134.13;4859513;29;20683;-76
2023/05/21 00:45:58;;;;;;;5.20;3.38;;;;;;;13.42;100.00;102122.59;4886432;29;20048;-76
2023/05/21 00:48:26;;;;;;;6.13;3.63;;;;;;;13.43;100.00;102122.63;4870851;29;20055;-76
2023/05/21 00:50:53;;;;;;;5.65;3.58;;;;;;;13.43;100.00;102122.63;4844265;29;20411;-76
2023/05/21 00:53:21;;;;;;;5.88;3.42;;;;;;;13.43;100.00;102117.31;4856623;29;20434;-76
2023/05/21 00:55:49;;;;;;;7.88;4.15;;;;;;;13.43;100.00;102114.66;4802288;29;20045;-76
2023/05/21 00:58:17;;;;;;;4.93;3.58;;;;;;;13.42;100.00;102104.06;4868054;29;20052;-76
2023/05/21 01:00:45;;;;;;;7.82;3.90;;;;;;;13.41;100.00;102107.59;4872282;29;20051;-76
2023/05/21 01:03:13;;;;;;;5.90;4.05;;;;;;;13.39;100.00;102104.03;4853947;29;20061;-76
2023/05/21 01:05:43;;;;;;;8.40;4.75;;;;;;;13.35;100.00;102112.81;4860678;29;20064;-77
2023/05/21 01:08:11;;;;;;;5.82;4.07;;;;;;;13.30;100.00;102106.53;4872957;29;20068;-76
2023/05/21 01:10:39;;;;;;;4.72;4.22;;;;;;;13.29;100.00;102110.97;4816990;29;20499;-76
2023/05/21 01:13:07;;;;;;;4.38;3.97;;;;;;;13.28;100.00;102101.22;4851955;29;20052;-76
2023/05/21 01:15:36;;;;;;;5.70;4.22;;;;;;;13.27;100.00;102112.69;4877610;29;20143;-76
2023/05/21 01:18:04;;;;;;;5.63;4.20;;;;;;;13.26;100.00;102113.56;4859835;29;20060;-76
2023/05/21 01:20:32;;;;;;;9.60;4.15;;;;;;;13.24;100.00;102112.66;4874164;29;20514;-76
2023/05/21 01:23:01;;;;;;;8.68;4.70;;;;;;;13.19;100.00;102102.00;4867174;29;20063;-76
2023/05/21 01:25:29;;;;;;;7.13;4.68;;;;;;;13.19;100.00;102106.41;4865964;29;20423;-76
2023/05/21 01:27:57;;;;;;;7.97;4.88;;;;;;;13.16;100.00;102104.63;4815664;29;20057;-76
2023/05/21 01:30:25;;;;;;;5.50;4.53;;;;;;;13.12;100.00;102109.84;4874268;29;20049;-76
2023/05/21 01:33:02;;;;;;;4.65;4.00;;;;;;;13.09;100.00;102104.53;4868116;29;20084;-76
2023/05/21 01:35:32;;;;;;;6.65;3.90;;;;;;;13.05;100.00;102101.81;4865108;29;20056;-76
2023/05/21 01:38:17;;;;;;;5.57;4.10;;;;;;;13.01;100.00;102112.38;4870075;29;20503;-76
2023/05/21 01:40:50;;;;;;;5.60;4.13;;;;;;;12.98;100.00;102110.53;4881026;29;20041;-75
2023/05/21 01:43:19;;;;;;;7.30;4.60;;;;;;;12.92;100.00;102099.88;4827511;29;20055;-76
2023/05/21 01:45:51;;;;;;;7.82;4.55;;;;;;;12.87;100.00;102099.84;4885172;29;20045;-76
2023/05/21 01:48:18;;;;;;;9.15;4.68;;;;;;;12.82;100.00;102092.72;4883446;29;20052;-76
2023/05/21 01:50:48;;;;;;;8.52;4.95;;;;;;;12.78;100.00;102089.13;4871025;29;20045;-76
2023/05/21 01:53:16;;;;;;;6.20;5.05;;;;;;;12.74;100.00;102075.81;4859919;29;20052;-75
2023/05/21 01:55:44;;;;;;;6.85;4.25;;;;;;;12.70;100.00;102074.88;4865984;29;20049;-76
2023/05/21 01:58:12;;;;;;;8.63;4.28;;;;;;;12.67;100.00;102070.47;4834780;29;20067;-75
2023/05/21 02:00:39;;;;;;;6.47;4.72;;;;;;;12.67;100.00;102070.47;4847333;29;20053;-76
2023/05/21 02:03:07;;;;;;;8.80;5.00;;;;;;;12.66;100.00;102074.00;4885469;29;20044;-76
2023/05/21 02:05:35;;;;;;;6.32;4.60;;;;;;;12.63;100.00;102084.50;4860480;29;20053;-76
2023/05/21 02:08:04;;;;;;;9.18;5.22;;;;;;;12.63;100.00;102092.44;4864171;29;20534;-76
2023/05/21 02:10:31;;;;;;;7.65;5.40;;;;;;;12.64;100.00;102085.38;4845213;29;20391;-76
2023/05/21 02:12:59;;;;;;;7.03;4.65;;;;;;;12.67;100.00;102069.56;4805059;29;20055;-76
2023/05/21 02:15:26;;;;;;;9.48;4.82;;;;;;;12.67;100.00;102066.94;4869074;29;20119;-76
2023/05/21 02:17:54;;;;;;;5.80;4.15;;;;;;;12.66;100.00;102079.28;4863235;29;20057;-76
2023/05/21 02:20:21;;;;;;;10.13;4.50;;;;;;;12.63;100.00;102075.69;4872337;29;20057;-76
2023/05/21 02:22:49;;;;;;;5.93;4.85;;;;;;;12.60;100.00;102083.56;4858974;29;20045;-76
2023/05/21 02:25:18;;;;;;;9.70;4.40;;;;;;;12.56;100.00;102087.03;4870282;29;20439;-76
2023/05/21 02:27:47;;;;;;;10.43;5.18;;;;;;;12.54;100.00;102079.09;4839443;29;20047;-77
2023/05/21 02:30:15;;;;;;;7.63;4.60;;;;;;;12.53;100.00;102073.75;4851202;29;20530;-76
2023/05/21 02:32:43;;;;;;;10.38;5.32;;;;;;;12.53;100.00;102061.44;4883163;29;20079;-76
2023/05/21 02:35:12;;;;;;;6.60;4.80;;;;;;;12.54;100.00;102068.50;4874074;29;20055;-76
2023/05/21 02:37:40;;;;;;;6.75;4.60;;;;;;;12.56;100.00;102072.06;4862016;29;20060;-76
2023/05/21 02:40:08;;;;;;;8.15;4.72;;;;;;;12.59;100.00;102071.19;4866871;29;20045;-76
2023/05/21 02:42:38;;;;;;;8.00;4.75;;;;;;;12.60;100.00;102070.34;4863306;29;20507;-76
2023/05/21 02:45:09;;;;;;;4.82;4.10;;;;;;;12.61;100.00;102072.16;4819923;29;20059;-76
2023/05/21 02:47:39;;;;;;;6.85;4.40;;;;;;;12.58;100.00;102067.69;4857340;29;20407;-76
2023/05/21 02:50:08;;;;;;;8.60;4.07;;;;;;;12.58;100.00;102070.31;4874396;29;20083;-76
2023/05/21 02:52:42;;;;;;;7.72;4.32;;;;;;;12.58;100.00;102059.75;4858960;29;20057;-76
2023/05/21 02:55:09;;;;;;;9.95;3.90;;;;;;;12.59;100.00;102063.25;4870372;29;20080;-76
2023/05/21 02:57:37;;;;;;;6.22;4.15;;;;;;;12.57;100.00;102057.97;4864799;29;20056;-75
2023/05/21 03:00:05;;;;;;;8.40;4.88;;;;;;;12.59;100.00;102060.63;4817194;29;20200;-76
2023/05/21 03:02:33;;;;;;;7.65;4.93;;;;;;;12.62;100.00;102069.50;4857479;29;20063;-76
2023/05/21 03:05:01;;;;;;;7.13;4.25;;;;;;;12.64;100.00;102058.94;4848101;29;20056;-76
2023/05/21 03:07:29;;;;;;;7.43;4.00;;;;;;;12.62;100.00;102058.03;4875802;29;20413;-76
2023/05/21 03:09:56;;;;;;;10.05;4.95;;;;;;;12.61;100.00;102051.00;4870340;29;20145;-76
2023/05/21 03:12:24;;;;;;;9.77;4.35;;;;;;;12.60;100.00;102057.13;4877410;29;20493;-76
2023/05/21 03:14:51;;;;;;;9.80;4.78;;;;;;;12.56;100.00;102055.31;4862422;29;20049;-76
2023/05/21 03:17:21;;;;;;;6.32;3.75;;;;;;;12.53;100.00;102056.13;4825914;29;20049;-76
2023/05/21 03:19:48;;;;;;;6.95;4.00;;;;;;;12.51;100.00;102052.59;4888616;29;20518;-76
2023/05/21 03:22:16;;;;;;;9.10;4.72;;;;;;;12.48;100.00;102057.84;4882216;29;20068;-76
2023/05/21 03:24:45;;;;;;;8.13;4.20;;;;;;;12.45;100.00;102058.66;4870633;29;20060;-76
2023/05/21 03:27:12;;;;;;;5.22;4.22;;;;;;;12.43;100.00;102051.59;4858194;29;20558;-76
2023/05/21 03:29:42;;;;;;;7.78;4.05;;;;;;;12.42;100.00;102050.72;4879342;29;20530;-76
2023/05/21 03:32:12;;;;;;;8.73;4.43;;;;;;;12.41;100.00;102048.03;4826818;29;21917;-76
2023/05/21 03:34:40;;;;;;;6.82;4.00;;;;;;;12.41;100.00;102043.63;4871850;29;20057;-75
2023/05/21 03:37:07;;;;;;;6.07;3.55;;;;;;;12.43;100.00;102054.25;4842839;29;20056;-76
2023/05/21 03:39:35;;;;;;;7.53;4.18;;;;;;;12.45;100.00;102053.38;4875194;29;20394;-76
2023/05/21 03:42:04;;;;;;;7.57;4.10;;;;;;;12.47;100.00;102043.72;4868119;29;20056;-76
2023/05/21 03:44:39;;;;;;;7.68;4.18;;;;;;;12.51;100.00;102046.41;4850976;29;20056;-77
2023/05/21 03:47:30;;;;;;;8.57;4.07;;;;;;;12.51;100.00;102059.63;4821477;29;20064;-76
2023/05/21 03:50:01;;;;;;;8.13;4.05;;;;;;;12.53;100.00;102055.25;4859982;29;20080;-76
2023/05/21 03:52:28;;;;;;;8.60;3.63;;;;;;;12.54;100.00;102063.22;4870979;29;20502;-76
2023/05/21 03:54:57;;;;;;;7.07;3.80;;;;;;;12.56;100.00;102052.66;4856710;29;20055;-77
2023/05/21 03:57:24;;;;;;;7.88;4.07;;;;;;;12.58;100.00;102053.56;4866595;29;20076;-76
2023/05/21 03:59:52;;;;;;;6.07;3.85;;;;;;;12.56;100.00;102056.19;4874742;29;20059;-77
2023/05/21 04:02:20;;;;;;;7.28;3.95;;;;;;;12.56;100.00;102057.97;4805942;29;20057;-76
2023/05/21 04:04:50;;;;;;;8.82;4.28;;;;;;;12.58;100.00;102064.16;4878465;29;20057;-77
2023/05/21 04:07:18;;;;;;;8.38;4.50;;;;;;;12.58;100.00;102058.88;4846175;29;20044;-76
2023/05/21 04:09:46;;;;;;;9.25;3.78;;;;;;;12.57;100.00;102065.00;4868480;29;20064;-77
2023/05/21 04:12:13;;;;;;;8.95;3.90;;;;;;;12.57;100.00;102067.66;4865684;29;20106;-76
2023/05/21 04:14:41;;;;;;;5.65;3.80;;;;;;;12.55;100.00;102056.16;4864521;29;20055;-76
2023/05/21 04:17:11;;;;;;;7.80;3.85;;;;;;;12.54;100.00;102063.22;4846333;29;20053;-76
2023/05/21 04:19:39;;;;;;;4.90;3.38;;;;;;;12.55;100.00;102064.09;4828221;29;20048;-77
2023/05/21 04:22:09;;;;;;;9.13;4.32;;;;;;;12.56;100.00;102068.53;4841872;29;21736;-76
2023/05/21 04:24:38;;;;;;;5.70;3.63;;;;;;;12.59;100.00;102079.13;4858096;29;20133;-76
2023/05/21 04:27:12;;;;;;;9.30;4.60;;;;;;;12.59;100.00;102077.41;4860077;29;20503;-77
2023/05/21 04:29:43;;;;;;;9.07;3.78;;;;;;;12.60;100.00;102078.28;4835581;29;20049;-76
2023/05/21 04:32:13;;;;;;;7.80;3.92;;;;;;;12.58;100.00;102078.25;4820681;29;20045;-76
2023/05/21 04:34:41;;;;;;;5.43;3.47;;;;;;;12.59;100.00;102076.50;4820215;29;20055;-76
2023/05/21 04:37:09;;;;;;;7.30;3.85;;;;;;;12.59;100.00;102077.41;4852833;29;20084;-77
2023/05/21 04:39:36;;;;;;;6.13;3.92;;;;;;;12.62;100.00;102079.19;4881734;29;20056;-76
2023/05/21 04:42:04;;;;;;;4.65;3.60;;;;;;;12.62;100.00;102072.13;4853959;29;20059;-77
2023/05/21 04:44:32;;;;;;;10.45;4.35;;;;;;;12.65;100.00;102066.03;4869293;29;20057;-77
2023/05/21 04:47:00;;;;;;;5.68;3.35;;;;;;;12.72;100.00;102059.03;4854207;29;20110;-76
2023/05/21 04:49:28;;;;;;;4.32;3.33;;;;;;;12.75;100.00;102070.56;4828279;29;20049;-76
2023/05/21 04:51:56;;;;;;;5.13;3.22;;;;;;;12.75;100.00;102073.19;4867350;29;20057;-77
2023/05/21 04:54:23;;;;;;;7.53;4.13;;;;;;;12.74;100.00;102060.88;4847740;29;20061;-77
2023/05/21 04:56:51;;;;;;;6.68;3.83;;;;;;;12.84;100.00;102068.03;4856783;29;20053;-76
2023/05/21 04:59:18;;;;;;;4.32;3.63;;;;;;;12.92;100.00;102064.63;4848536;29;20056;-76
2023/05/21 05:01:46;;;;;;;4.40;2.88;;;;;;;12.94;100.00;102062.88;4875340;29;20045;-76
2023/05/21 05:04:13;;;;;;;6.38;3.28;;;;;;;12.95;100.00;102059.34;4806012;29;20706;-76
2023/05/21 05:06:40;;;;;;;7.95;3.70;;;;;;;13.00;100.00;102060.31;4871891;29;20049;-76
2023/05/21 05:09:08;;;;;;;10.43;3.20;;;;;;;13.10;100.00;102051.63;4854136;29;20060;-76
2023/05/21 05:11:35;;;;;;;5.75;3.00;;;;;;;13.18;100.00;102057.88;4847580;29;20510;-76
2023/05/21 05:14:03;;;;;;;7.28;2.92;;;;;;;13.27;100.00;102051.81;4859521;29;20064;-76
2023/05/21 05:16:31;;;;;;;9.18;4.22;;;;;;;13.38;100.00;102041.34;4856867;29;20060;-76
2023/05/21 05:18:58;;;;;;;6.25;3.70;;;;;;;13.51;100.00;102045.91;4873230;29;20049;-76
2023/05/21 05:21:26;;;;;;;8.38;4.07;;;;;;;13.65;100.00;102046.06;4806660;29;20048;-76
2023/05/21 05:23:53;;;;;;;6.30;3.70;;;;;;;14.00;100.00;102038.41;4856234;29;20064;-76
2023/05/21 05:26:25;;;;;;;7.65;3.85;;;;;;;14.40;100.00;102041.38;4860997;29;20053;-76
2023/05/21 05:28:52;;;;;;;5.00;2.90;;;;;;;14.74;100.00;102030.06;4844765;29;20044;-76
2023/05/21 05:31:20;;;;;;;4.70;2.70;;;;;;;15.03;100.00;102038.19;4878050;29;20745;-76
2023/05/21 05:33:48;;;;;;;4.22;3.00;;;;;;;15.09;100.00;102034.66;4860238;29;20060;-76
2023/05/21 05:36:15;;;;;;;5.50;3.03;;;;;;;15.23;100.00;102030.25;4803102;29;20867;-76
2023/05/21 05:38:43;;;;;;;5.30;2.70;;;;;;;15.46;100.00;102026.75;4871140;29;20052;-76
2023/05/21 05:41:10;;;;;;;4.57;2.63;;;;;;;15.66;100.00;102030.34;4843479;29;20105;-76
2023/05/21 05:43:38;;;;;;;6.72;3.10;;;;;;;15.94;100.00;102025.97;4859454;29;20053;-76
2023/05/21 05:46:06;;;;;;;5.57;3.05;;;;;;;16.28;100.00;102031.25;4879480;29;20045;-76
2023/05/21 05:48:33;;;;;;;6.65;2.70;;;;;;;16.61;100.00;102029.38;4880488;29;20072;-77
2023/05/21 05:51:01;;;;;;;6.45;2.90;;;;;;;16.81;100.00;102029.31;4797979;29;20205;-76
2023/05/21 05:53:31;;;;;;;4.53;2.85;;;;;;;16.90;100.00;102028.41;4852909;29;20065;-77
2023/05/21 05:55:58;;;;;;;3.72;2.30;;;;;;;17.03;100.00;102027.50;4846966;29;20053;-76
2023/05/21 05:58:28;;;;;;;5.90;2.97;;;;;;;17.14;100.00;102032.75;4870748;29;20068;-76
2023/05/21 06:01:05;;;;;;;5.75;3.25;;;;;;;17.05;100.00;102025.72;4870336;29;20510;-76
2023/05/21 06:03:32;;;;;;;4.65;2.63;;;;;;;17.00;100.00;102024.84;4874288;29;20498;-76
2023/05/21 06:06:09;;;;;;;6.55;3.00;;;;;;;16.91;100.00;102022.22;4845641;29;20136;-76
2023/05/21 06:08:39;;;;;;;4.93;2.40;;;;;;;16.76;100.00;102018.69;4804927;29;20394;-77
2023/05/21 06:11:06;;;;;;;6.05;2.88;;;;;;;16.59;100.00;102016.97;4850500;29;20059;-76
2023/05/21 06:13:34;;;;;;;5.78;2.70;;;;;;;16.45;100.00;102009.06;4835195;29;20507;-76
2023/05/21 06:16:03;;;;;;;7.28;3.42;;;;;;;16.30;100.00;102013.50;4883706;29;20465;-76
2023/05/21 06:18:31;;;;;;;4.53;3.20;;;;;;;16.12;100.00;102016.19;4888151;29;20411;-76
2023/05/21 06:20:59;;;;;;;6.95;3.58;;;;;;;15.98;100.00;102021.53;4853589;29;20056;-76
2023/05/21 06:23:27;;;;;;;8.68;3.20;;;;;;;15.88;100.00;102014.44;4821948;29;20068;-76
2023/05/21 06:25:54;;;;;;;6.47;3.13;;;;;;;15.78;100.00;102017.09;4858664;29;20067;-76
2023/05/21 06:28:22;;;;;;;3.78;2.95;;;;;;;15.70;100.00;102015.28;4865377;29;20061;-76
2023/05/21 06:30:50;;;;;;;5.60;2.72;;;;;;;15.62;100.00;102022.38;4854618;29;20053;-76
2023/05/21 06:33:18;;;;;;;6.65;2.97;;;;;;;15.58;100.00;102013.53;4873156;29;20048;-76
2023/05/21 06:35:46;;;;;;;5.22;3.03;;;;;;;15.57;100.00;102009.94;4869372;29;20061;-76
2023/05/21 06:38:13;;;;;;;5.53;2.97;;;;;;;15.59;100.00;102002.91;4820506;29;21361;-76
2023/05/21 06:40:43;;;;;;;9.90;3.30;;;;;;;15.56;100.00;102009.97;4862535;29;20064;-76
2023/05/21 06:43:15;;;;;;;7.43;3.30;;;;;;;15.52;100.00;102010.81;4865127;29;20057;-76
2023/05/21 06:46:08;;;;;;;9.18;3.22;;;;;;;15.51;100.00;101999.31;4876318;29;20059;-76
2023/05/21 06:48:39;;;;;;;12.45;3.70;;;;;;;15.50;100.00;101999.31;4871751;29;20056;-76
2023/05/21 06:51:07;;;;;;;7.55;3.35;;;;;;;15.54;100.00;102003.78;4856422;29;20740;-76
2023/05/21 06:53:34;;;;;;;9.15;3.33;;;;;;;15.58;100.00;102001.09;4814224;29;20418;-76
2023/05/21 06:56:03;;;;;;;4.53;2.80;;;;;;;15.65;100.00;101999.34;4827996;29;20057;-76
2023/05/21 06:58:53;;;;;;;5.72;3.00;;;;;;;15.71;100.00;101995.81;4852913;29;20900;-76
2023/05/21 07:01:21;;;;;;;4.95;3.03;;;;;;;15.77;100.00;101998.50;4855638;29;20048;-76
2023/05/21 07:03:49;;;;;;;5.00;3.20;;;;;;;15.81;100.00;101996.72;4874837;29;20057;-76
2023/05/21 07:06:16;;;;;;;6.85;3.20;;;;;;;15.78;100.00;101989.63;4867466;29;20057;-76
2023/05/21 07:08:45;;;;;;;6.82;3.08;;;;;;;15.74;100.00;101988.75;4818231;29;20056;-76
2023/05/21 07:11:12;;;;;;;4.35;2.90;;;;;;;15.77;100.00;101988.75;4820594;29;20414;-76
2023/05/21 07:13:40;;;;;;;6.30;2.88;;;;;;;15.77;100.00;101996.72;4836088;29;20049;-76
2023/05/21 07:16:07;;;;;;;8.82;3.33;;;;;;;15.77;100.00;102001.16;4870132;29;20064;-76
2023/05/21 07:18:37;;;;;;;5.68;3.40;;;;;;;15.74;100.00;102001.16;4871703;29;20556;-76
2023/05/21 07:21:04;;;;;;;5.90;3.15;;;;;;;15.76;100.00;101997.63;4863135;29;20057;-76
2023/05/21 07:23:32;;;;;;;4.78;3.03;;;;;;;15.76;100.00;101992.31;4820761;29;20048;-76
2023/05/21 07:25:59;;;;;;;5.20;2.90;;;;;;;15.77;100.00;101990.53;4860188;29;20060;-76
2023/05/21 07:28:27;;;;;;;5.07;2.92;;;;;;;15.79;100.00;101986.97;4861531;29;20053;-76
2023/05/21 07:30:54;;;;;;;8.38;2.92;;;;;;;15.78;100.00;101993.19;4856446;29;20064;-76
2023/05/21 07:33:29;;;;;;;6.82;2.83;;;;;;;15.75;100.00;101990.53;4849596;29;20067;-75
2023/05/21 07:35:57;;;;;;;10.10;3.10;;;;;;;15.67;100.00;101981.66;4870852;29;20057;-76
2023/05/21 07:38:25;;;;;;;4.47;2.80;;;;;;;15.60;100.00;101988.72;4862593;29;20060;-76
2023/05/21 07:40:52;;;;;;;4.03;2.40;;;;;;;15.61;100.00;101989.59;4836253;29;20452;-76
2023/05/21 07:43:20;;;;;;;7.80;4.43;;;;;;;15.61;100.00;101986.94;4843485;29;20052;-76
2023/05/21 07:45:47;;;;;;;5.40;3.17;;;;;;;15.63;100.00;101977.19;4850100;29;20438;-76
2023/05/21 07:48:15;;;;;;;6.80;3.00;;;;;;;15.66;100.00;101982.50;4856726;29;20415;-76
2023/05/21 07:50:57;;;;;;;5.72;3.92;;;;;;;15.74;100.00;101979.88;4842362;29;20068;-76
2023/05/21 07:53:25;;;;;;;7.03;3.67;;;;;;;15.81;100.00;101976.34;4854471;29;20470;-76
2023/05/21 07:55:54;;;;;;;7.28;3.35;;;;;;;15.90;100.00;101973.69;4833736;29;20060;-76
2023/05/21 07:58:26;;;;;;;4.32;2.78;;;;;;;15.98;100.00;101973.69;4857283;29;20076;-75
2023/05/21 08:00:53;;;;;;;5.25;2.88;;;;;;;16.02;100.00;101975.44;4853711;29;20056;-76
2023/05/21 08:03:20;;;;;;;4.78;3.00;;;;;;;16.10;100.00;101967.44;4851145;29;20053;-76
2023/05/21 08:05:49;;;;;;;6.63;3.00;;;;;;;16.15;100.00;101960.34;4847976;29;20052;-75
2023/05/21 08:08:18;;;;;;;5.72;3.28;;;;;;;16.13;100.00;101967.44;4851367;29;20523;-75
2023/05/21 08:10:46;;;;;;;6.13;3.53;;;;;;;16.09;100.00;101960.38;4809147;29;20051;-76
2023/05/21 08:13:15;;;;;;;5.55;3.55;;;;;;;16.09;100.00;101963.03;4861361;29;20049;-76
2023/05/21 08:15:43;;;;;;;9.88;2.80;;;;;;;16.10;100.00;101967.44;4847254;29;20061;-76
2023/05/21 08:18:11;;;;;;;8.63;3.08;;;;;;;16.13;100.00;101963.00;4863308;29;20377;-75
2023/05/21 08:20:41;;;;;;;7.88;2.92;;;;;;;16.15;100.00;101971.88;4861695;29;20056;-76
2023/05/21 08:23:10;;;;;;;7.72;3.53;;;;;;;16.17;100.00;101956.78;4858420;29;20081;-76
2023/05/21 08:25:42;;;;;;;6.53;3.08;;;;;;;16.22;100.00;101972.75;4832579;29;20499;-76
2023/05/21 08:28:10;;;;;;;8.52;4.22;;;;;;;16.33;100.00;101970.94;4867216;29;20060;-75
2023/05/21 08:30:37;;;;;;;4.78;3.20;;;;;;;16.34;100.00;101963.84;4836153;29;20053;-75
2023/05/21 08:33:05;;;;;;;8.82;3.38;;;;;;;16.27;100.00;101972.72;4863869;29;20076;-75
2023/05/21 08:35:33;;;;;;;4.82;3.08;;;;;;;16.18;100.00;101971.88;4853728;29;20067;-75
2023/05/21 08:38:17;;;;;;;4.13;2.85;;;;;;;16.21;100.00;101970.97;4868440;29;20061;-75
2023/05/21 08:40:57;;;;;;;6.45;3.30;;;;;;;16.24;100.00;101970.06;4840630;29;20045;-75
2023/05/21 08:43:28;;;;;;;8.43;3.30;;;;;;;16.29;100.00;101962.97;4823563;29;20064;-75
2023/05/21 08:46:02;;;;;;;4.35;2.60;;;;;;;16.34;100.00;101974.50;4853545;29;20057;-75
2023/05/21 08:48:35;;;;;;;5.78;2.90;;;;;;;16.33;100.00;101970.94;4856161;29;20422;-75
2023/05/21 08:51:05;;;;;;;7.03;3.85;;;;;;;16.35;100.00;101966.50;4858760;29;20069;-75
2023/05/21 08:53:37;;;;;;;7.13;3.20;;;;;;;16.44;100.00;101959.38;4856961;29;20045;-76
2023/05/21 08:56:08;;;;;;;;;;;;;;;16.46;100.00;101965.56;4869434;29;20438;-76
2023/05/21 08:58:46;;;;;;;8.32;3.33;;;;;;;16.48;100.00;101963.78;4827036;29;19924;-76
2023/05/21 09:01:17;;;;;;;5.30;3.08;;;;;;;16.53;100.00;101962.00;4842432;29;20056;-76
2023/05/21 09:03:51;;;;;;;6.72;3.28;;;;;;;16.57;100.00;101969.09;4856061;29;20049;-76
2023/05/21 09:06:24;;;;;;;4.45;3.33;;;;;;;16.61;100.00;101967.31;4869955;29;20072;-76
2023/05/21 09:09:01;;;;;;;4.63;2.70;;;;;;;16.65;100.00;101963.72;4858052;29;20055;-75
2023/05/21 09:11:36;;;;;;;5.72;2.92;;;;;;;16.71;100.00;101967.25;4865299;29;20410;-76
2023/05/21 09:14:04;;;;;;;4.93;3.25;;;;;;;16.77;100.00;101969.00;4825713;29;20045;-76
2023/05/21 09:16:48;;;;;;;5.40;3.35;;;;;;;16.91;100.00;101955.66;4856494;29;20064;-76
2023/05/21 09:19:20;;;;;;;7.28;3.00;;;;;;;17.05;100.00;101961.81;4845084;29;20057;-76
2023/05/21 09:21:51;;;;;;;4.82;3.10;;;;;;;17.10;100.00;101962.63;4858846;29;20056;-77
2023/05/21 09:24:21;;;;;;;5.55;3.30;;;;;;;17.08;100.00;101967.09;4864006;29;20111;-76
2023/05/21 09:26:50;;;;;;;7.03;3.50;;;;;;;17.09;100.00;101954.69;4867562;29;20061;-75
2023/05/21 09:29:18;;;;;;;4.43;2.65;;;;;;;17.16;100.00;101948.41;4804725;29;20546;-76
2023/05/21 09:31:45;;;;;;;8.23;3.30;;;;;;;17.21;100.00;101951.03;4870173;29;20064;-76
2023/05/21 09:34:14;;;;;;;4.10;2.72;;;;;;;17.28;100.00;101951.00;4814266;29;20727;-76
2023/05/21 09:36:43;;;;;;;5.70;3.20;;;;;;;17.34;100.00;101947.41;4873811;29;20529;-76
2023/05/21 09:39:15;;;;;;;6.90;3.65;;;;;;;17.32;100.00;101949.19;4863265;29;20056;-76
2023/05/21 09:41:44;;;;;;;10.68;3.63;;;;;;;17.26;100.00;101943.91;4873882;29;20754;-76
2023/05/21 09:44:12;;;;;;;3.75;2.50;;;;;;;17.22;100.00;101948.38;4821075;29;20060;-76
2023/05/21 09:46:40;;;;;;;5.10;3.17;;;;;;;17.12;100.00;101950.19;4874389;29;20465;-76
2023/05/21 09:49:23;;;;;;;4.50;3.28;;;;;;;17.05;100.00;101943.16;4834521;29;20533;-76
2023/05/21 09:51:55;;;;;;;7.20;3.22;;;;;;;17.07;100.00;101951.13;4878133;29;20053;-76
2023/05/21 09:54:25;;;;;;;6.97;3.28;;;;;;;17.11;100.00;101951.09;4872210;29;20521;-76
2023/05/21 09:56:53;;;;;;;6.30;2.93;;;;;;;17.17;100.00;101949.31;4863295;29;20052;-76
2023/05/21 09:59:20;;;;;;;7.88;3.22;;;;;;;17.14;100.00;101944.84;4819981;29;20059;-77
2023/05/21 10:01:51;;;;;;;8.65;2.90;;;;;;;17.10;100.00;101954.66;4885542;29;20490;-76
2023/05/21 10:04:21;;;;;;;14.63;3.13;;;;;;;17.12;100.00;101939.53;4839794;29;20501;-78
2023/05/21 10:06:49;;;;;;;4.88;3.38;;;;;;;17.13;100.00;101936.00;4860537;29;20414;-76
2023/05/21 10:09:18;;;;;;;8.00;3.53;;;;;;;17.12;100.00;101936.88;4876641;29;20060;-75
2023/05/21 10:11:48;;;;;;;6.20;3.20;;;;;;;17.17;100.00;101939.53;4848268;29;20059;-77
2023/05/21 10:14:18;;;;;;;4.65;3.22;;;;;;;17.20;100.00;101933.28;4851694;29;20049;-77
2023/05/21 10:16:46;;;;;;;4.97;3.17;;;;;;;17.19;100.00;101942.19;4855616;29;20048;-77
2023/05/21 10:19:14;;;;;;;6.32;3.30;;;;;;;17.15;100.00;101943.97;4866146;29;20542;-75
2023/05/21 10:21:43;;;;;;;6.35;2.97;;;;;;;17.13;100.00;101938.66;4858014;29;20044;-78
2023/05/21 10:24:12;;;;;;;8.35;3.85;;;;;;;17.08;100.00;101936.91;4868349;29;20048;-79
2023/05/21 10:26:40;;;;;;;4.75;2.78;;;;;;;17.05;100.00;101932.50;4858890;29;20395;-76
2023/05/21 10:29:08;;;;;;;4.55;3.08;;;;;;;17.05;100.00;101929.84;4874335;29;20400;-77
2023/05/21 10:31:37;;;;;;;6.10;3.35;;;;;;;17.06;100.00;101926.28;4841238;29;20044;-76
2023/05/21 10:34:05;;;;;;;5.85;3.20;;;;;;;17.08;100.00;101924.47;4870746;29;20048;-76
2023/05/21 10:36:35;;;;;;;8.50;3.60;;;;;;;17.13;100.00;101914.69;4837471;29;20052;-76
2023/05/21 10:39:03;;;;;;;5.35;3.55;;;;;;;17.21;100.00;101924.41;4870347;29;20049;-76
2023/05/21 10:41:42;;;;;;;8.68;3.90;;;;;;;17.36;100.00;101916.31;4858169;29;20538;-76
2023/05/21 10:44:16;;;;;;;7.00;3.92;;;;;;;17.42;100.00;101916.25;4858021;29;20530;-77
2023/05/21 10:47:00;;;;;;;7.47;4.07;;;;;;;17.46;100.00;101907.31;4838752;29;20506;-75
2023/05/21 10:49:53;;;;;;;8.85;3.90;;;;;;;17.50;100.00;101909.09;4867374;29;20083;-76
2023/05/21 10:52:32;;;;;;;9.20;3.65;;;;;;;17.61;100.00;101916.09;4860002;29;20509;-76
2023/05/21 10:55:16;;;;;;;6.20;3.78;;;;;;;17.65;100.00;101907.16;4872773;29;20057;-76
2023/05/21 10:58:11;;;;;;;6.22;3.35;;;;;;;17.52;100.00;101904.63;4869331;29;20052;-79
2023/05/21 11:00:39;;;;;;;9.70;3.92;;;;;;;17.48;100.00;101908.19;4867314;29;20253;-76
2023/05/21 11:03:07;;;;;;;7.88;3.90;;;;;;;17.52;100.00;101907.28;4831719;29;20053;-75
2023/05/21 11:05:55;;;;;;;8.48;3.42;;;;;;;17.54;100.00;101894.84;4862075;29;20439;-77
2023/05/21 11:08:22;;;;;;;9.70;3.88;;;;;;;17.50;100.00;101895.75;4853340;29;20052;-76
2023/05/21 11:10:54;;;;;;;10.50;3.72;;;;;;;17.56;100.00;101893.91;4875421;29;20051;-76
2023/05/21 11:13:22;;;;;;;8.65;4.32;;;;;;;17.67;100.00;101890.25;4879998;29;20052;-77
2023/05/21 11:16:03;;;;;;;7.43;4.07;;;;;;;17.69;100.00;101882.25;4878364;29;20060;-77
2023/05/21 11:18:53;;;;;;;7.05;4.30;;;;;;;17.66;100.00;101884.94;4817253;29;20056;-78
2023/05/21 11:21:21;;;;;;;10.38;4.38;;;;;;;17.67;100.00;101876.91;4868350;29;20068;-78
2023/05/21 11:24:00;;;;;;;9.88;4.60;;;;;;;17.73;100.00;101887.53;4893073;29;20056;-77
2023/05/21 11:26:46;;;;;;;6.57;4.40;;;;;;;17.71;100.00;101878.69;4860267;29;20064;-78
2023/05/21 11:29:13;;;;;;;9.05;4.30;;;;;;;17.61;100.00;101876.97;4884728;29;20053;-77